This demonstration page uses our WeatherBlox Daily Observations layout. Learn more.

39.01783, -85.05884

Hourly Observations for May 30, 2019

Temp ( °F °C ) Dew Point ( °F °C ) Humidity (%) Winds ( mph kmh ) Pressure ( in mb ) Visibility ( mi km ) Precip ( " mm )
12:45 am 00:45 Cloudy with Thunderstorms 70 21.1 67 19.4 90 90 S 8 13 29.8 1009 10 16.09344 0 0
12:52 am 00:52 Cloudy with Thunderstorms 71 21.7 67 19.4 87 87 S 8 13 29.8 1009 10 16.09344 0 0
1:21 am 01:21 Cloudy with Heavy Thunderstorms 71 21.7 67 19.4 87 87 WNW 16 26 29.85 1011 4 6.437376 0.02 0.508
1:33 am 01:33 Cloudy with Light Rain 68 20 64 17.8 87 87 WNW 13 20 29.83 1010 10 16.09344 0.03 0.762
1:45 am 01:45 Cloudy 68 20 64 17.8 87 87 W 10 17 29.83 1010 10 16.09344 0.03 0.762
1:52 am 01:52 Cloudy 67 19.4 64 17.8 91 91 W 7 11 29.83 1010 10 16.09344 0.03 0.762
2:52 am 02:52 Cloudy with Light Rain 66 18.9 63 17.2 90 90 SSW 5 7 29.8 1009 10 16.09344 0.001 0.001
3:52 am 03:52 Cloudy 66 18.9 64 17.8 93 93 S 6 9 29.74 1007 10 16.09344 0.01 0.254
4:52 am 04:52 Cloudy 66 18.9 64 17.8 93 93 S 6 9 29.74 1007 10 16.09344 0 0
5:52 am 05:52 Cloudy 67 19.4 63 17.2 87 87 S 8 13 29.74 1007 10 16.09344 0.001 0.001
6:52 am 06:52 Cloudy 66 18.9 63 17.2 90 90 SSW 9 15 29.77 1008 10 16.09344 0 0
7:52 am 07:52 Cloudy 67 19.4 63 17.2 87 87 SSW 8 13 29.77 1008 10 16.09344 0 0
8:52 am 08:52 Cloudy 67 19.4 63 17.2 87 87 SSW 8 13 29.8 1009 10 16.09344 0.001 0.001
9:52 am 09:52 Cloudy 69 20.6 64 17.8 84 84 SW 8 13 29.8 1009 10 16.09344 0 0
10:12 am 10:12 Cloudy 69 20.6 64 17.8 84 84 SW 12 19 29.8 1009 10 16.09344 0 0
10:14 am 10:14 Cloudy 69 20.6 64 17.8 84 84 SW 10 17 29.8 1009 10 16.09344 0 0
10:41 am 10:41 Cloudy 69 20.6 64 17.8 84 84 SW 9 15 29.8 1009 10 16.09344 0 0
10:52 am 10:52 Cloudy with Light Rain 69 20.6 64 17.8 84 84 SW 9 15 29.8 1009 10 16.09344 0.001 0.001
11:14 am 11:14 Cloudy with Light Rain 69 20.6 65 18.3 87 87 SW 8 13 29.8 1009 10 16.09344 0.001 0.001
11:52 am 11:52 Cloudy with Light Rain 69 20.6 65 18.3 87 87 SW 7 11 29.8 1009 6 9.656064 0.03 0.762
12:52 pm 12:52 Cloudy with Light Rain 69 20.6 66 18.9 90 90 WSW 8 13 29.8 1009 7 11.265408 0.04 1.016
1:05 pm 13:05 Cloudy with Light Rain 69 20.6 66 18.9 90 90 SW 8 13 29.8 1009 7 11.265408 0.001 0.001
1:52 pm 13:52 Cloudy 70 21.1 65 18.3 84 84 SSW 10 17 29.77 1008 10 16.09344 0.001 0.001
2:26 pm 14:26 Cloudy 70 21.1 65 18.3 84 84 WSW 8 13 29.77 1008 10 16.09344 0.001 0.001
2:52 pm 14:52 Cloudy 70 21.1 65 18.3 84 84 SW 12 19 29.8 1009 10 16.09344 0.001 0.001
3:52 pm 15:52 Cloudy 73 22.8 65 18.3 76 76 WSW 9 15 29.8 1009 10 16.09344 0.001 0.001
4:52 pm 16:52 Cloudy 73 22.8 64 17.8 74 74 WSW 9 15 29.8 1009 10 16.09344 0 0
5:10 pm 17:10 Partly Cloudy 74 23.3 65 18.3 74 74 SW 10 17 29.8 1009 10 16.09344 0 0
5:52 pm 17:52 Mostly Cloudy 75 23.9 65 18.3 71 71 WSW 8 13 29.77 1008 10 16.09344 0 0
6:52 pm 18:52 Partly Cloudy 74 23.3 64 17.8 71 71 SW 9 15 29.77 1008 10 16.09344 0 0
7:52 pm 19:52 Partly Cloudy 72 22.2 64 17.8 76 76 SW 7 11 29.77 1008 10 16.09344 0 0
8:52 pm 20:52 Mostly Cloudy 71 21.7 64 17.8 79 79 SW 3 6 29.8 1009 10 16.09344 0 0
9:52 pm 21:52 Mostly Clear 68 20 63 17.2 84 84 SW 3 6 29.8 1009 10 16.09344 0 0
11:52 pm 23:52 Cloudy 68 20 64 17.8 87 87 Calm 29.83 1010 10 16.09344 0 0

Powered by AerisWeather